Time;durP1;ratioP1;P1;durP2;ratioP2;P2;SDS_P1;SDS_P2;PMS_P1;PMS_P2;Temp;Humidity;BMP_temperature;BMP_pressure;BME280_temperature;BME280_humidity;BME280_pressure;Samples;Min_cycle;Max_cycle;Signal;HPM_P1;HPM_P2
2022/06/02 00:01:09;;;;;;;16.20;14.40;;;8.80;99.90;;;;;;4985185;28;20088;-78
2022/06/02 00:03:39;;;;;;;15.33;13.63;;;8.80;99.90;;;;;;4994086;28;20073;-78
2022/06/02 00:06:15;;;;;;;13.53;11.97;;;8.80;99.90;;;;;;4999782;28;20049;-78
2022/06/02 00:08:59;;;;;;;11.93;10.33;;;8.80;99.90;;;;;;4969921;28;20057;-77
2022/06/02 00:11:30;;;;;;;;;;;8.80;99.90;;;;;;4978263;28;20050;-78
2022/06/02 00:14:03;;;;;;;10.83;9.10;;;8.70;99.90;;;;;;4993853;28;19917;-77
2022/06/02 00:16:37;;;;;;;8.20;7.40;;;8.70;99.90;;;;;;4990569;28;20061;-77
2022/06/02 00:19:08;;;;;;;12.87;11.47;;;8.60;99.90;;;;;;5001485;28;20057;-77
2022/06/02 00:21:42;;;;;;;11.67;10.10;;;8.60;99.90;;;;;;5004271;28;20048;-77
2022/06/02 00:24:29;;;;;;;13.73;11.38;;;8.60;99.90;;;;;;4983153;28;20104;-78
2022/06/02 00:27:01;;;;;;;7.50;6.50;;;8.60;99.90;;;;;;4988702;28;20124;-77
2022/06/02 00:29:35;;;;;;;6.53;5.37;;;8.50;99.90;;;;;;4993382;28;20030;-77
2022/06/02 00:32:07;;;;;;;;;;;8.50;99.90;;;;;;4994269;28;20050;-77
2022/06/02 00:34:40;;;;;;;3.67;3.13;;;8.40;99.90;;;;;;4997727;28;19968;-77
2022/06/02 00:37:21;;;;;;;3.55;3.03;;;8.40;99.90;;;;;;4980923;28;20045;-78
2022/06/02 00:39:49;;;;;;;3.27;2.97;;;8.40;99.90;;;;;;4975234;28;20041;-78
2022/06/02 00:42:32;;;;;;;3.50;2.87;;;8.30;99.90;;;;;;4996702;28;20034;-78
2022/06/02 00:44:59;;;;;;;5.43;4.72;;;8.30;99.90;;;;;;4998496;28;20453;-77
2022/06/02 00:47:39;;;;;;;4.70;3.97;;;8.20;99.90;;;;;;4955162;28;20042;-77
2022/06/02 00:50:09;;;;;;;8.90;6.20;;;8.20;99.90;;;;;;4974318;28;20046;-77
2022/06/02 00:52:47;;;;;;;8.07;6.00;;;8.10;99.90;;;;;;4992164;28;20038;-78
2022/06/02 00:58:19;;;;;;;8.83;7.00;;;8.00;99.90;;;;;;4983744;28;20050;-77
2022/06/02 01:00:49;;;;;;;118.37;8.70;;;8.00;99.90;;;;;;4977168;28;20152;-77
2022/06/02 01:03:19;;;;;;;127.57;11.17;;;8.00;99.90;;;;;;4980933;28;20121;-77
2022/06/02 01:06:06;;;;;;;9.90;8.90;;;8.00;99.90;;;;;;4988563;28;20169;-77
2022/06/02 01:09:04;;;;;;;14.63;10.63;;;7.90;99.90;;;;;;4985833;28;20424;-77
2022/06/02 01:11:41;;;;;;;13.03;11.63;;;7.90;99.90;;;;;;4985389;28;20045;-77
2022/06/02 01:14:22;;;;;;;13.33;11.93;;;7.90;99.90;;;;;;4976922;28;20096;-77
2022/06/02 01:16:56;;;;;;;15.73;14.13;;;7.80;99.90;;;;;;4981105;28;20076;-77
2022/06/02 01:19:52;;;;;;;20.05;16.77;;;7.80;99.90;;;;;;5008060;28;20466;-80
2022/06/02 01:22:47;;;;;;;21.83;17.83;;;7.90;99.90;;;;;;4965905;28;20046;-79
2022/06/02 01:25:38;;;;;;;24.63;18.90;;;7.90;99.90;;;;;;4975037;28;20042;-79
2022/06/02 01:28:29;;;;;;;30.30;21.57;;;7.90;99.90;;;;;;4978438;28;20041;-79
2022/06/02 01:31:02;;;;;;;27.20;19.50;;;8.00;99.90;;;;;;4998762;28;20048;-80
2022/06/02 01:33:36;;;;;;;21.42;16.80;;;8.10;99.90;;;;;;4992675;28;20062;-80
2022/06/02 01:36:11;;;;;;;16.20;13.67;;;8.10;99.90;;;;;;4993905;28;20046;-80
2022/06/02 01:38:52;;;;;;;12.10;9.90;;;8.10;99.90;;;;;;4990382;28;20041;-79
2022/06/02 01:41:25;;;;;;;27.30;19.97;;;8.10;99.90;;;;;;4982407;28;20117;-79
2022/06/02 01:44:01;;;;;;;21.77;17.15;;;8.10;99.90;;;;;;4994161;28;20071;-79
2022/06/02 01:46:42;;;;;;;21.40;14.90;;;8.10;99.90;;;;;;5000417;28;20057;-79
2022/06/02 01:49:20;;;;;;;17.23;13.13;;;8.10;99.90;;;;;;4983892;28;20125;-79
2022/06/02 01:51:58;;;;;;;10.60;9.23;;;8.10;99.90;;;;;;4963637;28;20038;-80
2022/06/02 01:54:36;;;;;;;10.30;9.20;;;8.00;99.90;;;;;;4991759;28;20067;-79
2022/06/02 01:57:15;;;;;;;11.87;10.53;;;8.00;99.90;;;;;;4997876;28;20454;-79
2022/06/02 01:59:57;;;;;;;8.33;7.53;;;7.90;99.90;;;;;;5001746;28;20503;-79
2022/06/02 02:02:32;;;;;;;11.00;9.73;;;7.90;99.90;;;;;;4990541;28;20048;-82
2022/06/02 02:05:17;;;;;;;13.13;11.73;;;7.90;99.90;;;;;;4994211;28;20066;-79
2022/06/02 02:08:01;;;;;;;22.20;9.63;;;7.80;99.90;;;;;;4974179;28;20526;-80
2022/06/02 02:10:36;;;;;;;18.80;12.20;;;7.80;99.90;;;;;;4992424;28;20034;-79
2022/06/02 02:13:13;;;;;;;13.60;10.83;;;7.70;99.90;;;;;;4971963;28;20046;-79
2022/06/02 02:15:47;;;;;;;17.50;15.03;;;7.70;99.90;;;;;;4991289;28;20049;-80
2022/06/02 02:18:32;;;;;;;17.65;14.90;;;7.70;99.90;;;;;;5004391;28;20041;-81
2022/06/02 02:21:14;;;;;;;14.93;12.90;;;7.70;99.90;;;;;;4979503;28;20054;-79
2022/06/02 02:23:50;;;;;;;15.37;7.77;;;7.70;99.90;;;;;;4987741;28;20511;-80
2022/06/02 02:26:25;;;;;;;15.17;12.90;;;7.70;99.90;;;;;;4983321;28;20061;-80
2022/06/02 02:29:00;;;;;;;27.03;17.73;;;7.60;99.90;;;;;;4982726;28;20124;-79
2022/06/02 02:31:41;;;;;;;14.63;11.93;;;7.60;99.90;;;;;;4983573;28;20042;-80
2022/06/02 02:34:17;;;;;;;13.53;10.90;;;7.60;99.90;;;;;;5005254;28;20038;-79
2022/06/02 02:36:51;;;;;;;10.87;9.43;;;7.60;99.90;;;;;;4993694;28;20056;-79
2022/06/02 02:39:22;;;;;;;11.18;9.75;;;7.60;99.90;;;;;;4982148;28;20052;-79
2022/06/02 02:41:53;;;;;;;13.57;10.87;;;7.50;99.90;;;;;;4997809;28;20388;-80
2022/06/02 02:44:25;;;;;;;14.17;11.57;;;7.50;99.90;;;;;;4991011;28;20042;-80
2022/06/02 02:46:59;;;;;;;18.33;12.73;;;7.50;99.90;;;;;;4986331;28;20125;-79
2022/06/02 02:49:33;;;;;;;11.10;9.32;;;7.40;99.90;;;;;;5003470;28;20038;-80
2022/06/02 02:52:05;;;;;;;13.63;10.48;;;7.40;99.90;;;;;;4988909;28;20056;-80
2022/06/02 02:54:37;;;;;;;11.80;10.13;;;7.40;99.90;;;;;;4995131;28;20048;-80
2022/06/02 02:57:09;;;;;;;12.97;10.60;;;7.30;99.90;;;;;;4989960;28;20132;-80
2022/06/02 02:59:45;;;;;;;10.77;8.33;;;7.30;99.90;;;;;;4999135;28;20073;-80
2022/06/02 03:02:22;;;;;;;7.90;6.63;;;7.30;99.90;;;;;;4959742;28;20042;-79
2022/06/02 03:04:56;;;;;;;9.90;8.83;;;7.20;99.90;;;;;;5012147;28;20050;-80
2022/06/02 03:07:22;;;;;;;14.37;11.67;;;7.20;99.90;;;;;;5009510;28;20049;-80
2022/06/02 03:10:02;;;;;;;10.70;9.60;;;7.20;99.90;;;;;;4998155;28;20072;-80
2022/06/02 03:12:39;;;;;;;7.73;6.93;;;7.10;99.90;;;;;;4974867;28;20060;-80
2022/06/02 03:15:14;;;;;;;8.03;6.80;;;7.10;99.90;;;;;;4976912;28;20103;-80
2022/06/02 03:18:13;;;;;;;12.90;10.57;;;7.10;99.90;;;;;;5007915;28;20128;-80
2022/06/02 03:20:50;;;;;;;7.87;6.90;;;7.10;99.90;;;;;;4977251;28;20065;-82
2022/06/02 03:23:43;;;;;;;11.47;9.30;;;7.10;99.90;;;;;;4996554;28;20128;-80
2022/06/02 03:26:19;;;;;;;9.23;8.30;;;7.10;99.90;;;;;;4992180;28;20045;-80
2022/06/02 03:28:52;;;;;;;12.93;10.97;;;7.00;99.90;;;;;;4964051;28;20046;-80
2022/06/02 03:31:27;;;;;;;11.03;9.53;;;7.00;99.90;;;;;;4980948;28;20050;-79
2022/06/02 03:34:02;;;;;;;14.13;12.47;;;7.00;99.90;;;;;;4978015;28;20053;-79
2022/06/02 03:37:12;;;;;;;17.67;14.50;;;7.00;99.90;;;;;;4991961;28;20060;-81
2022/06/02 03:39:53;;;;;;;19.37;14.33;;;7.00;99.90;;;;;;5009837;28;20060;-80
2022/06/02 03:42:28;;;;;;;25.23;17.00;;;7.00;99.90;;;;;;4984984;28;20416;-80
2022/06/02 03:45:10;;;;;;;17.60;14.90;;;7.00;99.90;;;;;;5004208;28;20041;-81
2022/06/02 03:47:59;;;;;;;17.53;14.00;;;7.10;99.90;;;;;;4996364;28;20097;-81
2022/06/02 03:50:40;;;;;;;18.20;14.57;;;7.10;99.90;;;;;;4969185;28;20069;-80
2022/06/02 03:53:37;;;;;;;16.33;12.67;;;7.10;99.90;;;;;;4975237;28;20236;-80
2022/06/02 03:56:11;;;;;;;13.83;11.13;;;7.10;99.90;;;;;;5025585;28;20050;-80
2022/06/02 03:58:49;;;;;;;11.47;9.10;;;7.10;99.90;;;;;;4998681;28;20050;-80
2022/06/02 04:01:21;;;;;;;10.63;8.63;;;7.20;99.90;;;;;;4976036;28;20038;-80
2022/06/02 04:04:05;;;;;;;10.80;7.90;;;7.20;99.90;;;;;;4978632;28;20124;-80
2022/06/02 04:06:42;;;;;;;14.82;11.73;;;7.20;99.90;;;;;;4980467;28;20092;-80
2022/06/02 04:09:29;;;;;;;12.23;9.37;;;7.20;99.90;;;;;;4983152;28;20038;-80
2022/06/02 04:15:03;;;;;;;9.68;8.40;;;7.20;99.90;;;;;;4985831;28;20442;-80
2022/06/02 04:17:36;;;;;;;10.47;7.97;;;7.30;99.90;;;;;;5000869;28;20054;-80
2022/06/02 04:20:36;;;;;;;8.63;7.47;;;7.30;99.90;;;;;;4984699;28;20133;-80
2022/06/02 04:23:18;;;;;;;15.13;10.77;;;7.30;99.90;;;;;;4997429;28;20162;-81
2022/06/02 04:25:59;;;;;;;8.97;7.70;;;7.30;99.90;;;;;;5002160;28;20419;-81
2022/06/02 04:28:37;;;;;;;11.00;8.43;;;7.30;99.90;;;;;;4998287;28;20055;-82
2022/06/02 04:31:13;;;;;;;8.30;7.20;;;7.40;99.90;;;;;;5000771;28;20057;-80
2022/06/02 04:33:45;;;;;;;10.57;9.33;;;7.30;99.90;;;;;;5027269;28;20562;-81
2022/06/02 04:36:21;;;;;;;11.33;8.47;;;7.30;99.90;;;;;;4979990;28;20056;-80
2022/06/02 04:38:54;;;;;;;11.20;10.00;;;7.40;99.90;;;;;;4993561;28;20412;-80
2022/06/02 04:41:30;;;;;;;18.03;14.23;;;7.40;99.90;;;;;;4987459;28;20105;-81
2022/06/02 04:44:04;;;;;;;33.23;18.63;;;7.50;99.90;;;;;;4986022;28;20042;-81
2022/06/02 04:46:44;;;;;;;12.87;10.70;;;7.50;99.90;;;;;;5002236;28;20412;-81
2022/06/02 04:49:17;;;;;;;13.70;10.10;;;7.60;99.90;;;;;;5006882;28;20038;-81
2022/06/02 04:51:55;;;;;;;12.93;9.73;;;7.60;99.90;;;;;;4986018;28;20046;-80
2022/06/02 04:54:33;;;;;;;15.10;12.07;;;7.70;99.90;;;;;;4995660;28;20444;-81
2022/06/02 04:57:06;;;;;;;15.10;11.73;;;7.80;99.90;;;;;;4992063;28;20038;-80
2022/06/02 04:59:38;;;;;;;18.13;13.98;;;7.80;99.90;;;;;;5002391;28;20045;-81
2022/06/02 05:02:14;;;;;;;14.93;12.27;;;7.90;99.90;;;;;;5007548;28;20045;-80
2022/06/02 05:04:51;;;;;;;18.40;14.87;;;8.00;99.90;;;;;;4995530;28;20288;-80
2022/06/02 05:07:27;;;;;;;21.27;17.67;;;8.10;99.90;;;;;;4998147;28;20064;-80
2022/06/02 05:10:02;;;;;;;26.53;20.73;;;8.20;99.90;;;;;;4976159;28;20040;-80
2022/06/02 05:12:41;;;;;;;29.93;22.70;;;8.30;99.90;;;;;;4978639;28;20049;-80
2022/06/02 05:15:16;;;;;;;29.60;20.90;;;8.40;99.90;;;;;;4991363;28;20507;-79
2022/06/02 05:17:57;;;;;;;24.93;21.43;;;8.50;99.90;;;;;;4997129;28;20078;-80
2022/06/02 05:20:53;;;;;;;33.67;23.60;;;8.70;99.90;;;;;;4970462;28;20045;-80
2022/06/02 05:23:54;;;;;;;27.23;21.73;;;8.80;99.90;;;;;;4997907;28;20499;-79
2022/06/02 05:26:54;;;;;;;27.53;21.43;;;9.00;99.90;;;;;;4970298;28;20057;-80
2022/06/02 05:29:41;;;;;;;25.07;20.87;;;9.20;99.90;;;;;;4998836;28;20042;-79
2022/06/02 05:32:25;;;;;;;27.67;20.17;;;9.40;99.90;;;;;;4990776;28;20050;-79
2022/06/02 05:35:31;;;;;;;23.40;18.17;;;9.50;99.90;;;;;;4997874;28;20042;-81
2022/06/02 05:38:20;;;;;;;24.03;19.60;;;9.60;99.90;;;;;;4997047;28;20389;-79
2022/06/02 05:40:57;;;;;;;22.13;18.27;;;9.80;99.90;;;;;;5004159;28;20046;-79
2022/06/02 05:43:31;;;;;;;24.03;17.53;;;9.90;99.90;;;;;;4978963;28;20045;-79
2022/06/02 05:46:14;;;;;;;18.77;16.67;;;10.10;99.90;;;;;;4984033;28;20049;-81
2022/06/02 05:49:01;;;;;;;22.90;18.50;;;10.20;99.90;;;;;;4980017;28;20049;-79
2022/06/02 05:51:38;;;;;;;16.73;14.57;;;10.30;99.90;;;;;;4996889;28;20038;-80
2022/06/02 05:54:20;;;;;;;19.37;15.53;;;10.50;99.90;;;;;;4974216;28;20133;-79
2022/06/02 05:57:00;;;;;;;22.07;15.83;;;10.50;99.90;;;;;;4996448;28;20072;-77
2022/06/02 05:59:55;;;;;;;18.47;14.37;;;10.60;99.90;;;;;;4968982;28;20050;-79
2022/06/02 06:02:57;;;;;;;15.73;13.23;;;10.70;99.90;;;;;;4993815;28;20038;-78
2022/06/02 06:05:28;;;;;;;13.60;12.13;;;10.80;99.90;;;;;;4990010;28;20053;-80
2022/06/02 06:08:16;;;;;;;13.80;12.10;;;11.00;99.90;;;;;;4980041;28;20038;-80
2022/06/02 06:10:53;;;;;;;14.23;12.23;;;11.20;99.90;;;;;;4992529;28;20413;-79
2022/06/02 06:13:34;;;;;;;14.63;11.43;;;11.30;99.90;;;;;;5002788;28;20129;-79
2022/06/02 06:16:06;;;;;;;14.10;9.57;;;11.30;99.90;;;;;;4985123;28;20042;-79
2022/06/02 06:18:45;;;;;;;11.43;9.97;;;11.40;99.90;;;;;;4995434;28;20046;-79
2022/06/02 06:21:23;;;;;;;13.03;10.20;;;11.40;99.90;;;;;;4999876;28;20092;-80
2022/06/02 06:24:34;;;;;;;12.10;10.43;;;11.40;99.90;;;;;;4977538;28;20735;-83
2022/06/02 06:27:10;;;;;;;13.87;10.40;;;11.50;99.90;;;;;;4962865;28;20049;-80
2022/06/02 06:29:55;;;;;;;11.40;9.37;;;11.90;99.90;;;;;;4985062;28;20050;-79
2022/06/02 06:32:30;;;;;;;9.30;8.20;;;12.30;99.90;;;;;;4985224;28;20042;-79
2022/06/02 06:35:08;;;;;;;9.07;7.50;;;12.30;99.90;;;;;;4988666;28;20041;-79
2022/06/02 06:37:48;;;;;;;8.20;7.40;;;12.20;99.90;;;;;;4997686;28;20053;-80
2022/06/02 06:40:27;;;;;;;8.47;7.70;;;12.20;99.90;;;;;;4987604;28;20041;-79
2022/06/02 06:43:04;;;;;;;10.20;7.17;;;12.20;99.90;;;;;;4957947;28;20073;-79
2022/06/02 06:45:36;;;;;;;9.13;7.07;;;12.20;99.90;;;;;;4975293;28;20045;-79
2022/06/02 06:48:12;;;;;;;9.53;7.53;;;12.20;99.90;;;;;;4979334;28;20052;-79
2022/06/02 06:50:50;;;;;;;10.47;7.33;;;12.20;99.90;;;;;;5002356;28;20049;-79
2022/06/02 06:53:39;;;;;;;7.47;6.77;;;12.30;99.90;;;;;;4974225;28;20060;-79
2022/06/02 06:56:13;;;;;;;9.67;6.67;;;12.30;99.90;;;;;;4987888;28;20049;-81
2022/06/02 06:58:51;;;;;;;10.88;6.20;;;12.50;99.90;;;;;;4977314;28;20049;-78
2022/06/02 07:01:25;;;;;;;5.90;5.30;;;12.60;99.90;;;;;;4982096;28;20049;-78
2022/06/02 07:04:03;;;;;;;5.22;3.83;;;12.70;99.90;;;;;;4988339;28;20069;-78
2022/06/02 07:06:38;;;;;;;3.33;3.00;;;13.00;99.90;;;;;;5002147;28;20065;-78
2022/06/02 07:09:20;;;;;;;5.90;3.20;;;13.10;99.90;;;;;;4992871;28;20058;-81
2022/06/02 07:14:42;;;;;;;4.73;2.10;;;13.00;99.90;;;;;;4976365;28;20404;-80
2022/06/02 07:17:17;;;;;;;5.30;2.20;;;13.10;99.90;;;;;;4993392;28;20049;-79
2022/06/02 07:19:51;;;;;;;3.13;1.90;;;13.00;99.90;;;;;;4999291;28;20121;-78
2022/06/02 07:22:24;;;;;;;;;;;13.00;99.90;;;;;;4973889;28;20123;-77
2022/06/02 07:24:57;;;;;;;6.07;2.10;;;13.00;99.90;;;;;;4983241;28;19929;-78
2022/06/02 07:27:31;;;;;;;2.40;1.70;;;13.00;99.90;;;;;;4996061;28;20129;-75
2022/06/02 07:30:13;;;;;;;3.43;1.60;;;13.10;99.90;;;;;;4978129;28;20045;-76
2022/06/02 07:33:04;;;;;;;3.83;2.23;;;13.10;99.90;;;;;;4997661;28;20077;-76
2022/06/02 07:36:00;;;;;;;4.33;2.27;;;13.10;99.90;;;;;;4988901;28;20076;-77
2022/06/02 07:38:42;;;;;;;3.67;1.63;;;13.20;99.90;;;;;;4952822;28;20048;-77
2022/06/02 07:41:22;;;;;;;3.30;1.73;;;13.30;99.90;;;;;;4982093;28;20073;-76
2022/06/02 07:44:09;;;;;;;3.57;1.43;;;13.30;99.90;;;;;;4991428;28;20357;-76
2022/06/02 07:46:55;;;;;;;3.53;1.30;;;13.40;99.90;;;;;;5003193;28;20594;-76
2022/06/02 07:49:39;;;;;;;3.30;1.83;;;13.50;99.90;;;;;;4989573;28;20046;-75
2022/06/02 07:52:14;;;;;;;2.25;1.35;;;13.60;99.90;;;;;;4983852;28;20050;-76
2022/06/02 07:54:50;;;;;;;3.60;1.80;;;13.70;99.90;;;;;;4992151;28;20116;-77
2022/06/02 07:57:29;;;;;;;4.03;2.07;;;13.70;99.90;;;;;;4979922;28;20081;-76
2022/06/02 08:00:05;;;;;;;2.00;1.50;;;13.70;99.90;;;;;;4992011;28;20042;-75
2022/06/02 08:03:14;;;;;;;3.80;2.00;;;14.00;99.90;;;;;;4984322;28;20128;-76
2022/06/02 08:05:45;;;;;;;2.93;2.00;;;14.10;99.90;;;;;;4989955;28;20100;-75
2022/06/02 08:08:20;;;;;;;4.63;2.43;;;14.20;99.90;;;;;;4990635;28;20752;-76
2022/06/02 08:10:59;;;;;;;8.33;2.20;;;14.40;99.90;;;;;;4980624;28;20038;-76
2022/06/02 08:13:34;;;;;;;2.93;2.10;;;14.40;99.90;;;;;;4980585;28;20485;-77
2022/06/02 08:16:06;;;;;;;5.50;2.20;;;14.50;99.90;;;;;;4996697;28;20056;-75
2022/06/02 08:18:46;;;;;;;3.83;2.00;;;14.50;99.90;;;;;;4993243;28;20042;-76
2022/06/02 08:21:22;;;;;;;5.10;2.10;;;14.60;99.90;;;;;;4997482;28;20053;-76
2022/06/02 08:24:06;;;;;;;5.33;2.10;;;14.70;99.90;;;;;;4981763;28;20120;-77
2022/06/02 08:26:40;;;;;;;3.45;2.40;;;14.70;99.90;;;;;;5000800;28;20104;-77
2022/06/02 08:29:17;;;;;;;4.35;2.22;;;14.80;99.90;;;;;;4991026;28;20986;-74
2022/06/02 08:31:59;;;;;;;4.63;2.50;;;15.00;99.90;;;;;;4992657;28;20157;-76
2022/06/02 08:34:36;;;;;;;3.67;2.20;;;15.00;99.90;;;;;;4988302;28;20058;-76
2022/06/02 08:37:09;;;;;;;3.30;2.50;;;15.20;99.90;;;;;;5007529;28;20089;-75
2022/06/02 08:40:00;;;;;;;4.07;2.60;;;15.20;99.90;;;;;;4985948;28;20038;-76
2022/06/02 08:42:53;;;;;;;4.57;2.20;;;15.20;99.90;;;;;;4978046;28;20180;-76
2022/06/02 08:45:38;;;;;;;4.93;2.50;;;15.30;99.90;;;;;;4965271;28;20423;-76
2022/06/02 08:48:30;;;;;;;3.17;2.40;;;15.40;99.90;;;;;;4976659;28;20092;-76
2022/06/02 08:51:42;;;;;;;3.30;2.73;;;15.50;99.90;;;;;;5002953;28;20108;-77
2022/06/02 08:54:49;;;;;;;4.57;2.23;;;15.70;99.90;;;;;;4991162;28;20121;-77
2022/06/02 08:57:47;;;;;;;3.40;1.90;;;15.90;99.90;;;;;;4995527;28;20137;-76
2022/06/02 09:00:25;;;;;;;4.80;1.70;;;16.00;99.90;;;;;;4986657;28;20080;-76
2022/06/02 09:03:18;;;;;;;3.20;2.00;;;15.90;99.90;;;;;;4996206;28;20128;-76
2022/06/02 09:06:16;;;;;;;4.00;2.17;;;16.00;99.90;;;;;;4991805;28;20707;-76
2022/06/02 09:09:16;;;;;;;3.13;1.93;;;16.10;99.90;;;;;;4991226;28;20100;-77
2022/06/02 09:11:54;;;;;;;4.13;2.30;;;16.30;99.90;;;;;;4991370;28;20459;-78
2022/06/02 09:14:41;;;;;;;3.83;2.07;;;16.50;99.90;;;;;;4992936;28;20440;-76
2022/06/02 09:17:28;;;;;;;3.03;1.60;;;16.90;99.90;;;;;;4988223;28;20050;-76
2022/06/02 09:20:14;;;;;;;2.23;1.70;;;16.90;99.90;;;;;;4990358;28;20120;-77
2022/06/02 09:23:07;;;;;;;2.70;1.80;;;16.80;99.90;;;;;;4993465;28;20054;-77
2022/06/02 09:25:55;;;;;;;3.23;1.60;;;16.70;99.90;;;;;;4979568;28;20576;-77
2022/06/02 09:28:49;;;;;;;5.23;1.77;;;16.70;99.90;;;;;;4982609;28;20091;-77
2022/06/02 09:31:39;;;;;;;;;;;17.00;99.90;;;;;;4989725;28;20038;-77
2022/06/02 09:34:25;;;;;;;2.70;1.43;;;17.20;99.90;;;;;;4967871;28;20303;-77
2022/06/02 09:37:29;;;;;;;5.27;1.90;;;17.50;99.90;;;;;;4990710;28;20074;-76
2022/06/02 09:40:11;;;;;;;4.23;1.90;;;17.80;99.90;;;;;;4980536;28;20046;-76
2022/06/02 09:43:05;;;;;;;4.03;1.70;;;18.00;99.90;;;;;;5008590;28;20049;-76
2022/06/02 09:45:45;;;;;;;2.30;1.50;;;18.00;99.90;;;;;;4993230;28;20044;-76
2022/06/02 09:48:22;;;;;;;3.30;1.50;;;17.80;99.90;;;;;;4971929;28;20041;-77
2022/06/02 09:51:15;;;;;;;2.57;1.47;;;17.60;99.90;;;;;;4997017;28;20108;-77
2022/06/02 09:53:57;;;;;;;3.07;1.60;;;17.40;99.90;;;;;;4961331;28;20143;-76
2022/06/02 09:56:59;;;;;;;4.80;1.60;;;17.80;99.90;;;;;;4997987;28;20053;-77
2022/06/02 09:59:35;;;;;;;2.73;1.47;;;18.20;99.90;;;;;;4965700;28;20412;-76
2022/06/02 10:02:17;;;;;;;3.90;1.50;;;18.70;99.90;;;;;;4968451;28;20447;-77
2022/06/02 10:05:13;;;;;;;2.27;1.40;;;19.20;99.90;;;;;;4986602;28;20128;-77
2022/06/02 10:07:51;;;;;;;3.73;1.60;;;19.80;99.90;;;;;;4990178;28;20133;-75
2022/06/02 10:10:34;;;;;;;2.47;1.70;;;20.00;99.90;;;;;;4989461;28;20046;-74
2022/06/02 10:13:36;;;;;;;2.20;1.60;;;19.60;99.90;;;;;;4989142;28;20060;-75
2022/06/02 10:16:38;;;;;;;3.33;1.40;;;19.00;99.90;;;;;;5008062;28;20514;-74
2022/06/02 10:19:38;;;;;;;2.57;1.70;;;18.70;99.90;;;;;;4967994;28;20050;-75
2022/06/02 10:22:12;;;;;;;2.67;1.40;;;18.70;99.90;;;;;;4972855;28;20084;-75
2022/06/02 10:25:12;;;;;;;4.40;1.40;;;19.00;99.90;;;;;;4989774;28;20077;-74
2022/06/02 10:28:15;;;;;;;2.47;1.40;;;19.20;99.90;;;;;;4988607;28;20562;-74
2022/06/02 10:31:04;;;;;;;2.90;1.60;;;19.50;99.90;;;;;;5005562;28;20029;-76
2022/06/02 10:33:53;;;;;;;2.83;1.60;;;19.90;99.90;;;;;;4988018;28;20049;-76
2022/06/02 10:36:51;;;;;;;2.20;1.53;;;20.30;99.90;;;;;;4991045;28;20037;-75
2022/06/02 10:39:35;;;;;;;2.17;1.20;;;20.20;99.90;;;;;;4985864;28;20053;-75
2022/06/02 10:42:24;;;;;;;1.87;1.50;;;19.90;99.90;;;;;;4989322;28;20111;-74
2022/06/02 10:45:18;;;;;;;3.27;1.47;;;19.70;99.90;;;;;;4997149;28;20315;-73
2022/06/02 10:48:30;;;;;;;5.53;1.50;;;19.80;99.90;;;;;;4973965;28;20042;-75
2022/06/02 10:51:25;;;;;;;3.63;1.40;;;20.20;99.90;;;;;;4949767;28;20077;-75
2022/06/02 10:54:43;;;;;;;2.43;1.30;;;20.70;99.90;;;;;;4983676;28;20049;-76
2022/06/02 10:57:32;;;;;;;2.20;1.40;;;21.10;99.90;;;;;;4910695;29;20052;-75
2022/06/02 11:00:18;;;;;;;2.10;1.53;;;20.90;98.10;;;;;;4900353;29;20048;-77
2022/06/02 11:03:32;;;;;;;2.13;1.20;;;20.40;98.70;;;;;;4967062;28;20054;-77
2022/06/02 11:06:28;;;;;;;3.50;1.48;;;20.00;99.80;;;;;;4973186;28;20047;-77
2022/06/02 11:09:43;;;;;;;3.30;1.30;;;19.70;99.90;;;;;;4991857;28;20407;-75
2022/06/02 11:12:52;;;;;;;3.28;1.20;;;20.20;99.90;;;;;;4995220;28;20117;-74
2022/06/02 11:15:49;;;;;;;2.73;1.60;;;20.80;99.20;;;;;;4950318;28;20053;-77
2022/06/02 11:18:38;;;;;;;1.93;1.00;;;21.20;99.90;;;;;;4983394;28;20057;-76
2022/06/02 11:21:47;;;;;;;2.90;1.30;;;21.70;99.70;;;;;;5007138;28;20560;-76
2022/06/02 11:24:51;;;;;;;2.47;0.90;;;22.10;97.70;;;;;;5004010;28;20186;-75
2022/06/02 11:27:59;;;;;;;2.15;1.10;;;22.60;96.20;;;;;;4943415;28;20049;-76
2022/06/02 11:30:44;;;;;;;1.83;1.27;;;22.40;96.60;;;;;;4947948;28;20523;-76
2022/06/02 11:33:32;;;;;;;2.20;1.30;;;22.20;95.90;;;;;;4974206;28;20073;-75
2022/06/02 11:36:34;;;;;;;3.77;1.30;;;21.70;95.90;;;;;;4990544;28;20041;-77
2022/06/02 11:39:38;;;;;;;4.63;1.33;;;21.20;96.90;;;;;;4967829;28;20555;-75
2022/06/02 11:42:22;;;;;;;2.20;1.20;;;20.90;97.10;;;;;;4987303;28;20465;-77
2022/06/02 11:45:02;;;;;;;2.30;1.40;;;20.90;97.20;;;;;;4967203;28;20054;-77
2022/06/02 11:47:51;;;;;;;3.27;1.00;;;21.10;96.30;;;;;;4978198;28;20037;-77
2022/06/02 11:50:51;;;;;;;3.73;1.33;;;21.40;96.70;;;;;;4978815;28;20597;-76
2022/06/02 11:53:41;;;;;;;3.50;1.30;;;21.80;97.60;;;;;;4989044;28;20057;-77
2022/06/02 11:56:13;;;;;;;2.63;1.40;;;22.40;96.20;;;;;;4986211;28;20053;-78
2022/06/02 11:59:16;;;;;;;5.43;1.63;;;22.70;96.60;;;;;;5001823;28;20045;-78
2022/06/02 12:02:03;;;;;;;2.33;1.13;;;23.10;96.50;;;;;;4989044;28;20048;-78
2022/06/02 12:05:03;;;;;;;2.37;1.30;;;23.30;95.40;;;;;;5006701;28;20487;-78
2022/06/02 12:08:03;;;;;;;1.40;0.97;;;23.40;94.30;;;;;;5000711;28;20053;-78
2022/06/02 12:11:00;;;;;;;3.80;1.13;;;23.00;92.70;;;;;;4994243;28;20180;-77
2022/06/02 12:13:42;;;;;;;3.03;1.40;;;22.60;93.00;;;;;;4991752;28;20046;-78
2022/06/02 12:16:30;;;;;;;2.75;1.10;;;22.50;95.00;;;;;;4991017;28;20054;-76
2022/06/02 12:19:35;;;;;;;1.57;1.10;;;22.40;92.20;;;;;;4977075;28;20046;-76
2022/06/02 12:22:19;;;;;;;2.23;1.00;;;22.30;93.40;;;;;;4995807;28;20441;-77
2022/06/02 12:25:11;;;;;;;1.83;1.13;;;22.30;92.70;;;;;;4993905;28;20042;-77
2022/06/02 12:28:11;;;;;;;2.83;1.13;;;22.30;93.30;;;;;;4990396;28;20057;-77
2022/06/02 12:30:49;;;;;;;1.67;1.30;;;22.70;93.10;;;;;;4981512;28;20072;-77
2022/06/02 12:33:35;;;;;;;1.83;1.08;;;23.10;91.70;;;;;;4996336;28;20050;-76
2022/06/02 12:36:21;;;;;;;4.10;1.20;;;23.50;91.20;;;;;;4996277;28;20401;-77
2022/06/02 12:39:10;;;;;;;3.63;1.10;;;23.60;91.90;;;;;;4977296;28;20469;-76
2022/06/02 12:41:54;;;;;;;3.40;1.10;;;23.80;91.80;;;;;;4988798;28;20137;-77
2022/06/02 12:44:44;;;;;;;3.25;1.20;;;23.50;89.40;;;;;;4997463;28;20132;-77
2022/06/02 12:47:58;;;;;;;5.50;1.40;;;23.00;90.00;;;;;;4992912;28;20042;-78
2022/06/02 12:50:47;;;;;;;1.25;1.00;;;22.90;92.10;;;;;;4966342;28;20052;-76
2022/06/02 12:53:52;;;;;;;1.90;1.20;;;23.00;91.30;;;;;;4994486;28;20389;-77
2022/06/02 12:56:47;;;;;;;0.98;0.88;;;23.00;91.30;;;;;;4989417;28;20057;-77
2022/06/02 12:59:52;;;;;;;4.50;1.20;;;23.00;91.10;;;;;;4977628;28;20455;-77
2022/06/02 13:02:27;;;;;;;4.13;1.10;;;22.90;92.70;;;;;;4992927;28;20045;-78
2022/06/02 13:05:39;;;;;;;1.55;1.00;;;23.00;92.20;;;;;;4982984;28;20496;-77
2022/06/02 13:08:34;;;;;;;4.00;1.10;;;22.60;91.90;;;;;;4987368;28;20038;-77
2022/06/02 13:11:16;;;;;;;1.10;1.00;;;22.00;92.60;;;;;;5008922;28;20041;-78
2022/06/02 13:14:11;;;;;;;6.43;1.30;;;21.60;93.10;;;;;;4996376;28;20132;-79
2022/06/02 13:17:03;;;;;;;1.60;1.00;;;21.20;94.60;;;;;;4973011;28;20060;-78
2022/06/02 13:19:43;;;;;;;4.17;1.17;;;20.90;95.70;;;;;;4983411;28;20042;-81
2022/06/02 13:22:38;;;;;;;3.43;1.10;;;20.70;95.40;;;;;;4992923;28;20422;-79
2022/06/02 13:25:15;;;;;;;2.03;1.30;;;21.00;96.80;;;;;;4992489;28;20875;-81
2022/06/02 13:28:19;;;;;;;3.07;1.13;;;21.60;95.60;;;;;;4999519;28;20042;-79
2022/06/02 13:31:19;;;;;;;1.58;0.90;;;22.20;94.90;;;;;;4993298;28;20096;-80
2022/06/02 13:34:21;;;;;;;1.87;1.30;;;22.70;94.50;;;;;;4978358;28;20077;-79
2022/06/02 13:37:04;;;;;;;1.63;1.03;;;22.90;92.30;;;;;;4982380;28;20042;-80
2022/06/02 13:39:51;;;;;;;1.88;0.90;;;23.00;91.70;;;;;;5002628;28;20037;-80
2022/06/02 13:43:06;;;;;;;2.55;1.13;;;23.30;90.70;;;;;;4994615;28;20054;-80
2022/06/02 13:46:03;;;;;;;2.20;0.98;;;23.40;91.30;;;;;;5001197;28;20146;-80
2022/06/02 13:49:15;;;;;;;2.20;1.00;;;23.60;91.80;;;;;;4943324;28;20049;-80
2022/06/02 13:52:14;;;;;;;3.67;0.85;;;23.70;90.50;;;;;;4975304;28;20522;-80
2022/06/02 13:57:57;;;;;;;1.55;0.90;;;22.80;90.50;;;;;;4975291;28;20053;-79
2022/06/02 14:00:41;;;;;;;7.95;1.25;;;22.10;91.30;;;;;;4991730;28;20121;-79
2022/06/02 14:03:36;;;;;;;2.80;1.20;;;21.60;92.30;;;;;;4973470;28;20057;-80
2022/06/02 14:06:06;;;;;;;1.73;1.20;;;21.20;92.60;;;;;;4958402;28;20152;-80
2022/06/02 14:09:05;;;;;;;3.17;1.10;;;20.80;94.00;;;;;;4996626;28;20054;-80
2022/06/02 14:11:49;;;;;;;2.33;1.10;;;20.50;94.50;;;;;;4976692;28;20046;-80
2022/06/02 14:14:48;;;;;;;3.08;1.17;;;20.30;95.20;;;;;;4976703;28;20046;-80
2022/06/02 14:17:30;;;;;;;1.90;0.90;;;20.10;95.40;;;;;;4983505;28;20054;-80
2022/06/02 14:20:12;;;;;;;1.63;1.17;;;19.90;95.70;;;;;;4973096;28;20049;-79
2022/06/02 14:22:57;;;;;;;5.50;1.40;;;19.70;96.30;;;;;;4956243;28;20045;-80
2022/06/02 14:25:35;;;;;;;4.57;1.37;;;19.70;96.60;;;;;;4990184;28;20050;-80